createdAt,value
2019-03-16T00:01:56.679Z,0.13
2019-03-16T00:04:16.954Z,0.20
2019-03-16T00:06:45.913Z,0.20
2019-03-16T00:09:15.648Z,0.27
2019-03-16T00:11:43.959Z,0.40
2019-03-16T00:14:13.109Z,0.20
2019-03-16T00:16:41.348Z,0.40
2019-03-16T00:19:11.516Z,0.30
2019-03-16T00:21:40.384Z,0.30
2019-03-16T00:24:08.689Z,0.20
2019-03-16T00:26:36.941Z,0.30
2019-03-16T00:29:07.548Z,0.30
2019-03-16T00:31:39.269Z,0.30
2019-03-16T00:34:07.778Z,0.30
2019-03-16T00:36:36.321Z,0.23
2019-03-16T00:39:07.990Z,0.30
2019-03-16T00:41:36.001Z,0.40
2019-03-16T00:44:04.374Z,0.20
2019-03-16T00:46:33.315Z,0.30
2019-03-16T00:49:01.890Z,0.10
2019-03-16T00:51:29.983Z,0.17
2019-03-16T00:53:58.339Z,0.30
2019-03-16T00:56:26.440Z,0.30
2019-03-16T00:58:54.947Z,0.30
2019-03-16T01:01:23.506Z,0.30
2019-03-16T01:03:51.759Z,0.40
2019-03-16T01:06:20.215Z,0.30
2019-03-16T01:08:48.861Z,0.40
2019-03-16T01:11:17.001Z,0.40
2019-03-16T01:13:45.976Z,0.50
2019-03-16T01:16:14.850Z,0.47
2019-03-16T01:18:43.258Z,0.40
2019-03-16T01:21:12.044Z,0.30
2019-03-16T01:23:40.702Z,0.40
2019-03-16T01:26:09.461Z,0.40
2019-03-16T01:28:38.001Z,0.40
2019-03-16T01:31:06.817Z,0.20
2019-03-16T01:33:36.307Z,0.30
2019-03-16T01:36:05.044Z,0.47
2019-03-16T01:38:33.222Z,0.30
2019-03-16T01:41:01.330Z,0.40
2019-03-16T01:43:29.618Z,0.53
2019-03-16T01:45:58.027Z,0.30
2019-03-16T01:48:26.827Z,0.30
2019-03-16T01:50:54.971Z,0.40
2019-03-16T01:53:23.439Z,0.40
2019-03-16T01:55:52.261Z,0.43
2019-03-16T01:58:21.827Z,0.60
2019-03-16T02:00:49.942Z,0.33
2019-03-16T02:03:19.504Z,0.50
2019-03-16T02:05:48.409Z,0.40
2019-03-16T02:08:16.885Z,0.50
2019-03-16T02:10:45.045Z,0.60
2019-03-16T02:13:15.238Z,0.50
2019-03-16T02:15:43.582Z,0.50
2019-03-16T02:18:12.603Z,0.50
2019-03-16T02:20:40.651Z,0.50
2019-03-16T02:23:09.373Z,0.37
2019-03-16T02:25:37.836Z,0.47
2019-03-16T02:28:11.957Z,0.40
2019-03-16T02:30:58.965Z,0.40
2019-03-16T02:33:27.390Z,0.30
2019-03-16T02:35:56.719Z,0.27
2019-03-16T02:38:24.552Z,0.33
2019-03-16T02:40:53.104Z,0.37
2019-03-16T02:43:21.144Z,0.50
2019-03-16T02:45:49.722Z,0.30
2019-03-16T02:48:18.352Z,0.30
2019-03-16T02:50:46.777Z,0.33
2019-03-16T02:53:15.204Z,0.33
2019-03-16T02:55:43.807Z,0.20
2019-03-16T02:58:11.837Z,0.30
2019-03-16T03:00:40.746Z,0.30
2019-03-16T03:03:08.948Z,0.30
2019-03-16T03:05:37.577Z,0.40
2019-03-16T03:08:05.682Z,0.20
2019-03-16T03:10:34.542Z,0.47
2019-03-16T03:13:03.489Z,0.20
2019-03-16T03:15:32.434Z,0.40
2019-03-16T03:18:00.700Z,0.40
2019-03-16T03:20:30.314Z,0.40
2019-03-16T03:22:59.209Z,0.43
2019-03-16T03:25:30.030Z,0.50
2019-03-16T03:27:58.065Z,0.60
2019-03-16T03:30:26.474Z,0.57
2019-03-16T03:32:55.055Z,0.67
2019-03-16T03:35:29.035Z,0.60
2019-03-16T03:37:53.602Z,0.80
2019-03-16T03:40:22.060Z,0.90
2019-03-16T03:42:50.125Z,1.00
2019-03-16T03:45:18.685Z,1.10
2019-03-16T03:47:47.153Z,0.70
2019-03-16T03:50:15.731Z,0.97
2019-03-16T03:52:43.790Z,0.90
2019-03-16T03:55:12.217Z,1.07
2019-03-16T03:57:40.609Z,1.10
2019-03-16T04:00:10.100Z,0.90
2019-03-16T04:02:38.405Z,0.97
2019-03-16T04:05:06.482Z,0.80
2019-03-16T04:07:36.573Z,0.93
2019-03-16T04:10:05.730Z,1.10
2019-03-16T04:12:33.962Z,0.90
2019-03-16T04:15:02.052Z,0.90
2019-03-16T04:17:31.134Z,1.20
2019-03-16T04:19:59.627Z,1.00
2019-03-16T04:22:28.072Z,0.83
2019-03-16T04:24:56.213Z,1.03
2019-03-16T04:27:25.843Z,1.00
2019-03-16T04:29:54.149Z,1.00
2019-03-16T04:32:22.630Z,0.70
2019-03-16T04:34:50.711Z,0.87
2019-03-16T04:37:21.018Z,0.90
2019-03-16T04:39:49.277Z,0.90
2019-03-16T04:42:17.347Z,0.90
2019-03-16T04:44:46.179Z,0.90
2019-03-16T04:47:14.308Z,1.00
2019-03-16T04:49:42.162Z,0.90
2019-03-16T04:52:10.273Z,0.90
2019-03-16T04:54:38.359Z,0.87
2019-03-16T04:57:06.521Z,0.93
2019-03-16T04:59:36.057Z,0.90
2019-03-16T05:02:04.389Z,0.50
2019-03-16T05:04:42.501Z,0.87
2019-03-16T05:07:03.295Z,1.20
2019-03-16T05:09:31.315Z,0.80
2019-03-16T05:11:59.619Z,0.50
2019-03-16T05:14:28.949Z,0.47
2019-03-16T05:16:57.002Z,0.37
2019-03-16T05:19:25.466Z,0.50
2019-03-16T05:21:53.602Z,0.60
2019-03-16T05:24:21.716Z,0.43
2019-03-16T05:26:50.796Z,0.20
2019-03-16T05:29:19.108Z,0.30
2019-03-16T05:31:50.701Z,0.33
2019-03-16T05:34:19.241Z,0.23
2019-03-16T05:36:47.610Z,0.40
2019-03-16T05:39:15.954Z,0.30
2019-03-16T05:41:44.380Z,0.27
2019-03-16T05:44:12.858Z,0.37
2019-03-16T05:46:41.994Z,0.50
2019-03-16T05:49:11.397Z,0.30
2019-03-16T05:51:40.081Z,0.50
2019-03-16T05:54:08.142Z,0.60
2019-03-16T05:56:36.162Z,0.50
2019-03-16T05:59:04.410Z,0.60
2019-03-16T06:01:32.474Z,0.43
2019-03-16T06:04:00.502Z,0.50
2019-03-16T06:06:28.711Z,0.40
2019-03-16T06:08:57.082Z,0.70
2019-03-16T06:11:25.463Z,0.60
2019-03-16T06:13:54.287Z,0.63
2019-03-16T06:16:22.667Z,0.60
2019-03-16T06:18:50.708Z,0.40
2019-03-16T06:21:19.756Z,0.57
2019-03-16T06:23:47.809Z,0.60
2019-03-16T06:26:17.383Z,0.63
2019-03-16T06:28:46.612Z,0.70
2019-03-16T06:31:15.065Z,0.70
2019-03-16T06:33:43.524Z,0.60
2019-03-16T06:36:11.671Z,0.60
2019-03-16T06:38:39.719Z,0.60
2019-03-16T06:41:07.908Z,0.70
2019-03-16T06:43:35.987Z,0.57
2019-03-16T06:46:04.832Z,0.77
2019-03-16T06:48:33.646Z,0.70
2019-03-16T06:51:02.037Z,0.80
2019-03-16T06:53:30.853Z,0.90
2019-03-16T06:55:59.642Z,1.00
2019-03-16T06:58:27.593Z,0.70
2019-03-16T07:00:56.745Z,0.93
2019-03-16T07:03:26.602Z,1.20
2019-03-16T07:05:57.577Z,1.07
2019-03-16T07:08:27.615Z,1.13
2019-03-16T07:10:56.594Z,1.13
2019-03-16T07:13:24.822Z,1.00
2019-03-16T07:15:53.270Z,1.07
2019-03-16T07:18:22.292Z,1.10
2019-03-16T07:20:50.915Z,1.00
2019-03-16T07:23:20.055Z,1.10
2019-03-16T07:25:50.641Z,1.20
2019-03-16T07:28:19.133Z,1.20
2019-03-16T07:30:47.488Z,1.00
2019-03-16T07:33:16.356Z,1.30
2019-03-16T07:35:45.538Z,1.10
2019-03-16T07:38:14.498Z,1.40
2019-03-16T07:40:42.808Z,1.20
2019-03-16T07:43:11.406Z,1.43
2019-03-16T07:45:40.198Z,1.30
2019-03-16T07:48:08.192Z,1.30
2019-03-16T07:50:36.526Z,1.27
2019-03-16T07:53:04.610Z,1.43
2019-03-16T07:55:33.029Z,1.67
2019-03-16T07:58:01.155Z,1.13
2019-03-16T08:00:30.841Z,1.33
2019-03-16T08:02:59.258Z,1.17
2019-03-16T08:05:27.364Z,1.00
2019-03-16T08:07:55.442Z,1.20
2019-03-16T08:10:25.451Z,1.20
2019-03-16T08:12:53.518Z,1.10
2019-03-16T08:15:21.684Z,1.07
2019-03-16T08:17:49.911Z,1.13
2019-03-16T08:20:18.712Z,1.37
2019-03-16T08:22:47.157Z,1.30
2019-03-16T08:25:16.074Z,1.17
2019-03-16T08:27:53.958Z,1.20
2019-03-16T08:30:16.615Z,1.17
2019-03-16T08:32:44.662Z,1.20
2019-03-16T08:35:13.220Z,1.20
2019-03-16T08:37:41.482Z,1.20
2019-03-16T08:40:09.866Z,1.10
2019-03-16T08:42:38.013Z,1.27
2019-03-16T08:45:06.442Z,1.27
2019-03-16T08:47:35.430Z,1.30
2019-03-16T08:50:05.378Z,1.30
2019-03-16T08:52:33.987Z,1.20
2019-03-16T08:55:04.850Z,1.07
2019-03-16T08:57:33.054Z,1.20
2019-03-16T09:00:01.797Z,1.20
2019-03-16T09:02:30.545Z,0.87
2019-03-16T09:04:59.243Z,1.00
2019-03-16T09:07:27.835Z,1.10
2019-03-16T09:09:56.735Z,1.10
2019-03-16T09:12:25.183Z,1.20
2019-03-16T09:14:54.356Z,1.13
2019-03-16T09:17:23.012Z,1.33
2019-03-16T09:19:50.780Z,1.00
2019-03-16T09:22:18.856Z,0.77
2019-03-16T09:24:47.319Z,1.20
2019-03-16T09:27:15.587Z,0.90
2019-03-16T09:29:43.684Z,0.90
2019-03-16T09:32:11.746Z,1.03
2019-03-16T09:34:40.550Z,0.93
2019-03-16T09:37:08.809Z,0.60
2019-03-16T09:39:36.958Z,0.90
2019-03-16T09:42:05.014Z,0.70
2019-03-16T09:44:33.494Z,0.80
2019-03-16T09:47:01.684Z,0.90
2019-03-16T09:49:30.789Z,0.90
2019-03-16T09:51:58.747Z,0.80
2019-03-16T09:54:26.814Z,0.97
2019-03-16T09:57:01.502Z,0.90
2019-03-16T09:59:26.883Z,0.83
2019-03-16T10:01:55.102Z,1.03
2019-03-16T10:04:23.363Z,1.00
2019-03-16T10:06:51.342Z,0.90
2019-03-16T10:09:19.631Z,1.40
2019-03-16T10:11:48.328Z,1.20
2019-03-16T10:14:17.123Z,1.10
2019-03-16T10:16:45.953Z,0.90
2019-03-16T10:19:14.787Z,1.10
2019-03-16T10:21:44.284Z,1.00
2019-03-16T10:24:12.669Z,0.80
2019-03-16T10:26:40.781Z,0.87
2019-03-16T10:29:09.326Z,0.90
2019-03-16T10:31:37.783Z,0.90
2019-03-16T10:34:06.052Z,0.80
2019-03-16T10:36:34.819Z,1.07
2019-03-16T10:39:05.325Z,0.80
2019-03-16T10:41:33.379Z,1.00
2019-03-16T10:44:01.658Z,0.70
2019-03-16T10:46:30.059Z,1.10
2019-03-16T10:49:00.609Z,0.90
2019-03-16T10:51:28.796Z,0.90
2019-03-16T10:53:57.559Z,1.00
2019-03-16T10:56:26.455Z,0.90
2019-03-16T10:58:56.782Z,1.10
2019-03-16T11:01:25.864Z,1.30
2019-03-16T11:03:54.072Z,1.00
2019-03-16T11:06:23.696Z,1.00
2019-03-16T11:08:52.615Z,0.90
2019-03-16T11:11:20.845Z,1.03
2019-03-16T11:13:48.986Z,1.10
2019-03-16T11:16:17.008Z,1.17
2019-03-16T11:18:45.219Z,1.10
2019-03-16T11:21:13.213Z,1.10
2019-03-16T11:23:41.496Z,1.10
2019-03-16T11:26:11.966Z,0.90
2019-03-16T11:28:40.210Z,1.00
2019-03-16T11:31:08.921Z,1.60
2019-03-16T11:33:37.617Z,1.10
2019-03-16T11:36:06.653Z,0.83
2019-03-16T11:38:34.655Z,0.80
2019-03-16T11:41:02.829Z,0.90
2019-03-16T11:43:32.121Z,1.00
2019-03-16T11:46:00.811Z,1.03
2019-03-16T11:48:29.216Z,1.10
2019-03-16T11:50:59.059Z,1.10
2019-03-16T11:53:27.398Z,0.93
2019-03-16T11:55:56.546Z,1.20
2019-03-16T11:58:24.878Z,1.00
2019-03-16T12:00:54.417Z,1.17
2019-03-16T12:03:25.838Z,0.87
2019-03-16T12:05:56.709Z,0.83
2019-03-16T12:08:25.225Z,0.90
2019-03-16T12:10:53.480Z,0.97
2019-03-16T12:13:22.722Z,1.17
2019-03-16T12:15:50.893Z,0.90
2019-03-16T12:18:19.833Z,0.90
2019-03-16T12:20:47.866Z,0.67
2019-03-16T12:23:16.146Z,1.00
2019-03-16T12:25:44.206Z,0.80
2019-03-16T12:28:12.461Z,0.80
2019-03-16T12:30:40.599Z,0.80
2019-03-16T12:33:09.963Z,0.60
2019-03-16T12:35:38.513Z,0.80
2019-03-16T12:38:06.886Z,1.10
2019-03-16T12:40:35.553Z,0.70
2019-03-16T12:43:04.832Z,1.00
2019-03-16T12:45:33.105Z,1.47
2019-03-16T12:48:03.191Z,2.00
2019-03-16T12:50:31.412Z,0.80
2019-03-16T12:52:59.900Z,0.80
2019-03-16T12:55:28.633Z,1.00
2019-03-16T12:58:01.673Z,0.60
2019-03-16T13:00:29.594Z,0.80
2019-03-16T13:02:58.730Z,0.97
2019-03-16T13:05:26.809Z,0.73
2019-03-16T13:07:54.745Z,0.80
2019-03-16T13:10:22.910Z,1.10
2019-03-16T13:12:51.693Z,0.83
2019-03-16T13:15:20.006Z,1.00
2019-03-16T13:17:48.556Z,0.67
2019-03-16T13:20:17.211Z,0.80
2019-03-16T13:22:45.446Z,0.70
2019-03-16T13:25:13.718Z,0.70
2019-03-16T13:27:42.290Z,0.70
2019-03-16T13:30:12.562Z,0.70
2019-03-16T13:32:41.587Z,0.63
2019-03-16T13:35:16.459Z,0.80
2019-03-16T13:37:44.888Z,1.07
2019-03-16T13:40:13.539Z,1.10
2019-03-16T13:42:41.789Z,0.97
2019-03-16T13:45:10.185Z,0.80
2019-03-16T13:47:38.304Z,1.03
2019-03-16T13:50:09.002Z,0.90
2019-03-16T13:52:37.467Z,0.70
2019-03-16T13:55:05.882Z,0.70
2019-03-16T13:57:33.949Z,0.90
2019-03-16T14:00:11.739Z,0.93
2019-03-16T14:02:35.025Z,0.90
2019-03-16T14:05:03.785Z,0.60
2019-03-16T14:07:33.721Z,0.90
2019-03-16T14:10:02.368Z,0.70
2019-03-16T14:12:30.647Z,0.83
2019-03-16T14:14:58.736Z,0.70
2019-03-16T14:17:27.043Z,0.70
2019-03-16T14:19:55.139Z,0.80
2019-03-16T14:22:23.316Z,0.60
2019-03-16T14:24:51.687Z,0.87
2019-03-16T14:27:19.863Z,0.70
2019-03-16T14:29:48.474Z,0.87
2019-03-16T14:32:16.747Z,0.60
2019-03-16T14:34:45.370Z,0.70
2019-03-16T14:37:13.424Z,0.70
2019-03-16T14:39:41.760Z,0.60
2019-03-16T14:42:10.320Z,0.80
2019-03-16T14:44:38.403Z,0.57
2019-03-16T14:47:07.448Z,0.70
2019-03-16T14:49:36.201Z,0.70
2019-03-16T14:52:05.257Z,0.70
2019-03-16T14:54:33.545Z,0.63
2019-03-16T14:57:02.723Z,0.70
2019-03-16T14:59:31.206Z,0.63
2019-03-16T15:02:01.654Z,0.60
2019-03-16T15:04:30.525Z,0.70
2019-03-16T15:06:58.634Z,0.57
2019-03-16T15:09:27.075Z,0.80
2019-03-16T15:11:55.315Z,0.70
2019-03-16T15:14:24.188Z,0.70
2019-03-16T15:16:52.919Z,0.70
2019-03-16T15:19:21.308Z,0.70
2019-03-16T15:21:49.938Z,0.70
2019-03-16T15:24:18.026Z,0.90
2019-03-16T15:26:46.122Z,0.80
2019-03-16T15:29:15.740Z,0.70
2019-03-16T15:31:45.524Z,0.73
2019-03-16T15:34:15.556Z,0.70
2019-03-16T15:36:44.829Z,0.90
2019-03-16T15:39:13.393Z,1.10
2019-03-16T15:41:41.917Z,1.03
2019-03-16T15:44:10.781Z,1.00
2019-03-16T15:46:38.865Z,1.00
2019-03-16T15:49:08.530Z,1.00
2019-03-16T15:51:38.330Z,0.90
2019-03-16T15:54:06.361Z,1.00
2019-03-16T15:56:34.701Z,1.07
2019-03-16T15:59:03.440Z,0.97
2019-03-16T16:01:32.161Z,0.90
2019-03-16T16:04:00.499Z,0.83
2019-03-16T16:06:28.938Z,0.87
2019-03-16T16:08:58.353Z,0.97
2019-03-16T16:11:27.307Z,1.00
2019-03-16T16:13:55.993Z,0.93
2019-03-16T16:16:24.232Z,0.90
2019-03-16T16:18:52.315Z,0.80
2019-03-16T16:21:21.253Z,0.70
2019-03-16T16:23:49.712Z,0.80
2019-03-16T16:26:18.344Z,0.90
2019-03-16T16:28:47.012Z,0.97
2019-03-16T16:31:16.529Z,0.93
2019-03-16T16:33:45.037Z,1.00
2019-03-16T16:36:13.684Z,0.90
2019-03-16T16:38:42.113Z,0.90
2019-03-16T16:41:10.265Z,0.80
2019-03-16T16:43:38.706Z,1.10
2019-03-16T16:46:06.685Z,1.00
2019-03-16T16:48:34.863Z,0.90
2019-03-16T16:51:03.821Z,1.00
2019-03-16T16:53:32.303Z,1.10
2019-03-16T16:56:00.578Z,0.80
2019-03-16T16:58:29.478Z,0.90
2019-03-16T17:00:57.722Z,1.03
2019-03-16T17:03:26.112Z,1.00
2019-03-16T17:05:54.222Z,1.10
2019-03-16T17:08:22.696Z,1.20
2019-03-16T17:10:51.168Z,1.00
2019-03-16T17:13:19.553Z,1.13
2019-03-16T17:15:47.896Z,1.23
2019-03-16T17:18:16.107Z,1.30
2019-03-16T17:20:44.934Z,1.33
2019-03-16T17:23:13.080Z,1.53
2019-03-16T17:25:42.536Z,1.20
2019-03-16T17:28:11.112Z,1.30
2019-03-16T17:30:40.412Z,1.37
2019-03-16T17:33:08.372Z,1.40
2019-03-16T17:35:36.435Z,1.60
2019-03-16T17:38:05.442Z,1.60
2019-03-16T17:40:34.327Z,1.73
2019-03-16T17:43:02.405Z,1.30
2019-03-16T17:45:30.510Z,1.80
2019-03-16T17:47:58.821Z,2.40
2019-03-16T17:50:26.812Z,2.87
2019-03-16T17:52:54.936Z,4.70
2019-03-16T17:55:24.600Z,6.10
2019-03-16T17:57:52.844Z,5.40
2019-03-16T18:00:20.947Z,5.43
2019-03-16T18:02:52.137Z,6.80
2019-03-16T18:05:19.380Z,6.00
2019-03-16T18:07:47.702Z,7.70
2019-03-16T18:10:15.759Z,6.30
2019-03-16T18:12:44.647Z,6.13
2019-03-16T18:15:12.958Z,5.90
2019-03-16T18:17:41.541Z,6.20
2019-03-16T18:20:10.690Z,6.33
2019-03-16T18:22:38.938Z,6.37
2019-03-16T18:25:08.779Z,5.83
2019-03-16T18:27:37.600Z,5.83
2019-03-16T18:30:07.967Z,5.40
2019-03-16T18:32:36.441Z,5.67
2019-03-16T18:35:05.135Z,4.83
2019-03-16T18:37:33.619Z,6.63
2019-03-16T18:40:02.147Z,4.43
2019-03-16T18:42:31.805Z,4.77
2019-03-16T18:45:00.121Z,4.43
2019-03-16T18:47:28.476Z,4.30
2019-03-16T18:49:56.839Z,3.60
2019-03-16T18:52:25.101Z,4.00
2019-03-16T18:54:53.692Z,3.73
2019-03-16T18:57:21.899Z,3.43
2019-03-16T18:59:50.340Z,3.67
2019-03-16T19:02:20.901Z,3.20
2019-03-16T19:04:49.591Z,3.20
2019-03-16T19:07:19.151Z,3.50
2019-03-16T19:09:47.894Z,3.47
2019-03-16T19:12:16.425Z,3.10
2019-03-16T19:14:44.520Z,3.63
2019-03-16T19:17:13.406Z,3.43
2019-03-16T19:19:42.170Z,3.67
2019-03-16T19:22:11.650Z,2.90
2019-03-16T19:24:39.971Z,6.27
2019-03-16T19:27:08.312Z,5.00
2019-03-16T19:29:36.720Z,4.60
2019-03-16T19:32:05.221Z,3.93
2019-03-16T19:34:33.298Z,4.37
2019-03-16T19:37:03.663Z,4.10
2019-03-16T19:39:32.695Z,5.03
2019-03-16T19:42:01.781Z,4.80
2019-03-16T19:44:29.792Z,5.10
2019-03-16T19:46:59.662Z,4.80
2019-03-16T19:49:28.461Z,5.10
2019-03-16T19:51:56.581Z,5.60
2019-03-16T19:54:24.716Z,5.53
2019-03-16T19:56:54.780Z,5.07
2019-03-16T19:59:24.497Z,4.97
2019-03-16T20:01:53.432Z,5.77
2019-03-16T20:04:35.070Z,5.00
2019-03-16T20:06:52.759Z,5.27
2019-03-16T20:09:24.286Z,5.43
2019-03-16T20:11:51.719Z,5.23
2019-03-16T20:14:20.002Z,5.43
2019-03-16T20:16:48.450Z,5.70
2019-03-16T20:19:16.773Z,4.90
2019-03-16T20:21:46.035Z,4.70
2019-03-16T20:24:14.136Z,5.40
2019-03-16T20:26:42.589Z,6.23
2019-03-16T20:29:11.719Z,5.77
2019-03-16T20:31:46.719Z,5.53
2019-03-16T20:34:10.036Z,7.57
2019-03-16T20:36:37.990Z,7.40
2019-03-16T20:39:07.732Z,6.93
2019-03-16T20:41:36.694Z,7.73
2019-03-16T20:44:04.989Z,7.03
2019-03-16T20:46:33.353Z,6.90
2019-03-16T20:49:01.946Z,8.17
2019-03-16T20:51:30.122Z,9.53
2019-03-16T20:53:58.211Z,9.10
2019-03-16T20:56:26.419Z,9.20
2019-03-16T20:58:54.826Z,7.50
2019-03-16T21:01:25.200Z,7.27
2019-03-16T21:04:00.164Z,7.93
2019-03-16T21:06:28.645Z,8.00
2019-03-16T21:09:03.083Z,7.67
2019-03-16T21:11:27.452Z,7.57
2019-03-16T21:13:55.565Z,7.60
2019-03-16T21:16:24.691Z,6.50
2019-03-16T21:18:52.884Z,6.40
2019-03-16T21:21:22.484Z,5.70
2019-03-16T21:23:51.247Z,5.80
2019-03-16T21:26:20.505Z,6.10
2019-03-16T21:28:48.865Z,5.20
2019-03-16T21:31:17.046Z,4.97
2019-03-16T21:33:45.908Z,3.80
2019-03-16T21:36:14.116Z,3.13
2019-03-16T21:38:43.253Z,3.13
2019-03-16T21:41:11.591Z,2.60
2019-03-16T21:43:40.320Z,2.80
2019-03-16T21:46:09.538Z,2.10
2019-03-16T21:48:38.405Z,1.13
2019-03-16T21:51:06.726Z,1.20
2019-03-16T21:53:35.422Z,1.00
2019-03-16T21:56:03.904Z,1.30
2019-03-16T21:58:33.215Z,1.10
2019-03-16T22:01:01.728Z,1.20
2019-03-16T22:03:41.737Z,0.80
2019-03-16T22:06:02.113Z,0.90
2019-03-16T22:08:30.391Z,0.97
2019-03-16T22:10:58.659Z,1.07
2019-03-16T22:13:26.585Z,1.07
2019-03-16T22:15:55.526Z,0.90
2019-03-16T22:18:23.620Z,1.00
2019-03-16T22:20:52.152Z,1.23
2019-03-16T22:23:20.601Z,1.07
2019-03-16T22:25:49.178Z,0.83
2019-03-16T22:28:17.605Z,0.70
2019-03-16T22:31:05.651Z,0.90
2019-03-16T22:33:33.745Z,1.20
2019-03-16T22:36:01.873Z,3.10
2019-03-16T22:38:30.263Z,1.30
2019-03-16T22:40:58.512Z,1.00
2019-03-16T22:43:26.849Z,1.10
2019-03-16T22:45:55.224Z,1.10
2019-03-16T22:48:25.445Z,1.10
2019-03-16T22:50:53.725Z,1.10
2019-03-16T22:53:23.415Z,0.90
2019-03-16T22:55:51.969Z,1.20
2019-03-16T22:58:20.501Z,1.20
2019-03-16T23:00:50.787Z,1.53
2019-03-16T23:03:18.710Z,1.27
2019-03-16T23:05:46.791Z,1.20
2019-03-16T23:08:16.005Z,1.17
2019-03-16T23:10:44.312Z,1.10
2019-03-16T23:13:12.621Z,1.23
2019-03-16T23:15:40.659Z,1.10
2019-03-16T23:18:08.797Z,0.87
2019-03-16T23:20:36.789Z,0.97
2019-03-16T23:23:04.740Z,1.27
2019-03-16T23:25:34.256Z,1.20
2019-03-16T23:28:03.059Z,1.27
2019-03-16T23:30:31.348Z,1.10
2019-03-16T23:32:59.242Z,1.20
2019-03-16T23:35:27.594Z,1.30
2019-03-16T23:37:57.447Z,1.30
2019-03-16T23:40:25.462Z,1.20
2019-03-16T23:42:54.923Z,1.00
2019-03-16T23:45:23.797Z,1.20
2019-03-16T23:47:52.894Z,1.10
2019-03-16T23:50:23.217Z,1.30
2019-03-16T23:52:51.942Z,0.90
2019-03-16T23:55:20.493Z,0.90
2019-03-16T23:57:52.840Z,1.00
